Time;durP1;ratioP1;P1;durP2;ratioP2;P2;SDS_P1;SDS_P2;PMS_P1;PMS_P2;Temp;Humidity;BMP_temperature;BMP_pressure;BME280_temperature;BME280_humidity;BME280_pressure;Samples;Min_cycle;Max_cycle;Signal;HPM_P1;HPM_P2
2023/04/05 00:00:33;;;;;;;3.70;2.60;;;;;;;13.08;61.15;102420.44;5004674;28;20034;-52
2023/04/05 00:02:59;;;;;;;;;;;;;;;13.22;61.60;102430.44;5011913;28;20034;-50
2023/04/05 00:05:33;;;;;;;3.60;2.45;;;;;;;13.10;61.40;102429.25;5007266;28;19967;-51
2023/04/05 00:08:00;;;;;;;3.83;2.60;;;;;;;13.09;61.35;102434.66;5004465;28;20030;-52
2023/04/05 00:10:30;;;;;;;3.78;2.72;;;;;;;13.08;61.04;102438.31;5004264;28;20041;-52
2023/04/05 00:12:56;;;;;;;3.17;2.53;;;;;;;13.07;61.03;102432.06;5004450;28;20029;-51
2023/04/05 00:15:22;;;;;;;4.65;2.80;;;;;;;13.05;61.22;102435.78;5004938;28;20439;-51
2023/04/05 00:17:48;;;;;;;3.20;2.63;;;;;;;13.04;60.88;102432.22;5004531;28;20092;-52
2023/04/05 00:20:13;;;;;;;4.30;2.55;;;;;;;13.04;61.11;102428.66;5004170;28;20495;-52
2023/04/05 00:22:43;;;;;;;5.25;2.88;;;;;;;13.04;61.39;102431.34;5004886;28;20069;-52
2023/04/05 00:25:09;;;;;;;3.85;2.38;;;;;;;13.02;60.87;102423.41;5006837;28;20048;-52
2023/04/05 00:27:34;;;;;;;3.72;2.40;;;;;;;13.03;60.93;102427.81;5004377;28;20481;-52
2023/04/05 00:30:00;;;;;;;3.30;2.20;;;;;;;13.02;61.10;102423.41;5003889;28;20515;-51
2023/04/05 00:32:25;;;;;;;10.20;3.65;;;;;;;13.01;61.02;102421.69;5004136;28;20380;-52
2023/04/05 00:34:51;;;;;;;4.05;2.65;;;;;;;13.01;61.41;102416.31;5004547;28;20040;-52
2023/04/05 00:37:16;;;;;;;3.22;2.75;;;;;;;13.01;61.15;102415.47;5003981;28;20496;-52
2023/04/05 00:39:41;;;;;;;4.25;2.72;;;;;;;13.00;60.89;102413.72;5003734;28;20036;-51
2023/04/05 00:42:08;;;;;;;3.47;2.80;;;;;;;13.00;61.16;102413.72;5004209;28;20028;-53
2023/04/05 00:44:34;;;;;;;4.82;3.08;;;;;;;13.00;60.84;102413.72;5006770;28;20034;-52
2023/04/05 00:47:03;;;;;;;3.90;2.67;;;;;;;12.97;61.14;102414.75;5003767;28;20037;-51
2023/04/05 00:49:30;;;;;;;3.53;2.90;;;;;;;12.97;60.72;102411.22;5003932;28;20479;-52
2023/04/05 00:51:56;;;;;;;3.55;2.45;;;;;;;12.96;61.06;102406.81;5003615;28;20041;-52
2023/04/05 00:54:24;;;;;;;3.10;2.30;;;;;;;12.95;60.96;102405.09;5003948;28;20056;-51
2023/04/05 00:56:51;;;;;;;3.72;2.80;;;;;;;12.96;61.10;102404.97;5006888;28;20045;-51
2023/04/05 00:59:18;;;;;;;3.80;2.92;;;;;;;12.95;60.92;102402.41;5001697;28;20026;-50
2023/04/05 01:01:53;;;;;;;4.53;2.78;;;;;;;12.94;61.00;102409.53;5003322;28;20029;-50
2023/04/05 01:04:24;;;;;;;3.33;2.60;;;;;;;12.93;61.04;102418.53;5003832;28;20033;-52
2023/04/05 01:07:11;;;;;;;3.55;2.38;;;;;;;12.97;61.35;102417.44;5003672;28;20483;-51
2023/04/05 01:09:56;;;;;;;3.42;2.38;;;;;;;12.98;61.45;102410.25;5005102;28;20380;-50
2023/04/05 01:12:26;;;;;;;3.80;2.70;;;;;;;12.94;60.96;102408.69;5005443;28;20042;-52
2023/04/05 01:14:53;;;;;;;3.78;2.30;;;;;;;12.93;61.11;102406.94;5005399;28;20038;-51
2023/04/05 01:17:23;;;;;;;4.05;2.60;;;;;;;12.91;61.12;102407.91;5003194;28;20034;-51
2023/04/05 01:19:57;;;;;;;3.20;2.67;;;;;;;12.93;61.04;102409.63;5003130;28;20260;-50
2023/04/05 01:22:39;;;;;;;4.07;2.42;;;;;;;12.94;61.40;102409.53;5006379;28;20065;-51
2023/04/05 01:25:23;;;;;;;;;;;;;;;13.05;60.97;102409.88;5002404;28;20057;-50
2023/04/05 01:27:57;;;;;;;2.67;2.33;;;;;;;12.94;61.08;102401.53;5003379;28;19913;-51
2023/04/05 01:30:34;;;;;;;3.80;2.38;;;;;;;12.93;60.83;102399.81;5003836;28;20383;-52
2023/04/05 01:32:59;;;;;;;2.88;2.53;;;;;;;12.91;60.95;102397.19;5001977;28;20053;-49
2023/04/05 01:35:49;;;;;;;3.15;2.30;;;;;;;12.95;61.15;102394.41;5003499;28;20062;-51
2023/04/05 01:38:21;;;;;;;3.20;2.22;;;;;;;12.90;60.82;102387.44;5003182;28;20026;-51
2023/04/05 01:40:46;;;;;;;;;;;;;;;13.03;60.86;102381.50;5003782;28;20478;-52
2023/04/05 01:43:13;;;;;;;3.30;2.58;;;;;;;12.92;60.82;102379.34;5001602;28;20355;-50
2023/04/05 01:45:40;;;;;;;2.58;2.38;;;;;;;12.90;60.63;102384.75;5002868;28;20083;-51
2023/04/05 01:48:05;;;;;;;3.10;2.55;;;;;;;12.88;61.07;102383.13;5002929;28;20049;-52
2023/04/05 01:50:31;;;;;;;4.45;2.95;;;;;;;12.88;61.26;102380.44;5002534;28;20042;-51
2023/04/05 01:52:56;;;;;;;3.90;2.70;;;;;;;12.87;60.97;102387.59;5003370;28;20038;-50
2023/04/05 01:55:21;;;;;;;3.22;2.75;;;;;;;12.87;60.48;102381.38;5002732;28;20141;-52
2023/04/05 01:57:47;;;;;;;3.28;2.72;;;;;;;12.85;60.74;102378.81;5005154;28;20065;-52
2023/04/05 02:00:12;;;;;;;3.50;2.67;;;;;;;12.85;60.57;102383.25;5002795;28;20575;-49
2023/04/05 02:02:38;;;;;;;3.72;2.75;;;;;;;12.84;60.99;102377.06;5002733;28;20399;-52
2023/04/05 02:05:03;;;;;;;3.20;2.30;;;;;;;12.84;60.64;102374.38;5002774;28;20109;-52
2023/04/05 02:07:29;;;;;;;3.67;2.53;;;;;;;12.83;60.81;102380.69;5006785;28;20083;-49
2023/04/05 02:09:54;;;;;;;3.05;2.55;;;;;;;12.83;60.94;102367.31;5004479;28;20442;-51
2023/04/05 02:12:21;;;;;;;3.03;2.47;;;;;;;12.82;60.75;102373.59;5004104;28;20058;-50
2023/04/05 02:14:47;;;;;;;3.47;2.42;;;;;;;12.81;60.85;102374.56;5006504;28;20065;-52
2023/04/05 02:17:12;;;;;;;2.85;2.13;;;;;;;12.82;60.62;102362.03;5006853;28;20073;-51
2023/04/05 02:19:39;;;;;;;3.80;2.83;;;;;;;12.81;60.47;102371.88;5006727;28;20162;-50
2023/04/05 02:22:06;;;;;;;2.53;2.33;;;;;;;12.80;60.53;102370.13;5006446;28;20026;-50
2023/04/05 02:24:32;;;;;;;2.95;2.45;;;;;;;12.81;60.76;102365.63;5002766;28;20069;-52
2023/04/05 02:26:57;;;;;;;2.90;2.53;;;;;;;12.80;60.84;102366.59;5009696;28;20053;-51
2023/04/05 02:29:23;;;;;;;2.85;2.30;;;;;;;12.80;60.85;102364.78;5006302;28;20069;-52
2023/04/05 02:31:48;;;;;;;3.05;2.22;;;;;;;12.78;60.38;102358.66;5006376;28;20443;-52
2023/04/05 02:34:14;;;;;;;3.50;2.40;;;;;;;12.78;60.69;102361.31;5006499;28;20034;-51
2023/04/05 02:36:40;;;;;;;3.78;2.42;;;;;;;12.78;60.43;102361.31;5008402;28;20065;-50
2023/04/05 02:39:06;;;;;;;3.05;2.25;;;;;;;12.78;60.83;102364.00;4998187;28;20039;-51
2023/04/05 02:41:31;;;;;;;3.38;2.28;;;;;;;12.78;60.56;102365.81;5006017;28;20095;-52
2023/04/05 02:43:58;;;;;;;2.58;2.38;;;;;;;12.77;60.39;102350.69;5003736;28;20026;-52
2023/04/05 02:46:24;;;;;;;3.40;2.22;;;;;;;12.76;60.38;102357.00;5007657;28;20068;-52
2023/04/05 02:48:49;;;;;;;3.42;2.55;;;;;;;12.76;60.40;102351.66;5006214;28;20066;-49
2023/04/05 02:51:15;;;;;;;2.78;2.20;;;;;;;12.75;60.51;102356.13;5004660;28;20566;-52
2023/04/05 02:53:41;;;;;;;2.92;2.53;;;;;;;12.74;60.41;102354.41;5005904;28;20037;-52
2023/04/05 02:56:06;;;;;;;2.60;2.40;;;;;;;12.74;59.92;102357.06;5021015;28;20030;-51
2023/04/05 02:58:32;;;;;;;3.25;2.40;;;;;;;12.74;60.25;102354.41;5006344;28;20109;-51
2023/04/05 03:01:00;;;;;;;3.63;2.70;;;;;;;12.73;60.05;102349.13;5006313;28;20038;-50
2023/04/05 03:03:27;;;;;;;3.20;2.10;;;;;;;12.73;60.43;102346.44;5006372;28;20120;-51
2023/04/05 03:06:08;;;;;;;2.65;2.13;;;;;;;12.72;60.61;102340.25;5005513;28;20042;-51
2023/04/05 03:08:37;;;;;;;3.25;2.45;;;;;;;12.71;60.02;102342.03;5005679;28;20061;-51
2023/04/05 03:11:04;;;;;;;3.40;2.53;;;;;;;12.71;60.37;102338.50;5005246;28;20037;-52
2023/04/05 03:13:30;;;;;;;4.18;2.72;;;;;;;12.70;60.18;102336.78;5009231;28;20034;-52
2023/04/05 03:15:55;;;;;;;3.95;2.17;;;;;;;12.70;59.91;102329.63;5005655;28;20109;-51
2023/04/05 03:18:21;;;;;;;3.80;2.70;;;;;;;12.71;60.15;102333.16;5005457;28;20034;-52
2023/04/05 03:20:49;;;;;;;2.47;2.28;;;;;;;12.70;60.45;102329.63;5005608;28;20026;-51
2023/04/05 03:23:14;;;;;;;3.65;2.10;;;;;;;12.69;60.00;102327.88;5008822;28;20029;-51
2023/04/05 03:25:40;;;;;;;3.15;2.58;;;;;;;12.69;60.22;102325.22;5008579;28;20468;-52
2023/04/05 03:28:07;;;;;;;2.60;2.20;;;;;;;12.68;60.11;102323.50;5004248;28;20034;-50
2023/04/05 03:30:33;;;;;;;3.97;2.30;;;;;;;12.67;59.99;102321.75;5005115;28;20037;-51
2023/04/05 03:33:01;;;;;;;2.45;2.22;;;;;;;12.67;59.78;102320.88;5005729;28;20079;-51
2023/04/05 03:35:28;;;;;;;3.38;2.38;;;;;;;12.66;59.77;102319.16;5005124;28;20360;-50
2023/04/05 03:37:54;;;;;;;2.85;2.45;;;;;;;12.65;59.76;102320.09;5005290;28;20140;-52
2023/04/05 03:40:19;;;;;;;3.17;2.53;;;;;;;12.65;59.86;102323.63;5004843;28;20042;-52
2023/04/05 03:42:45;;;;;;;3.65;2.55;;;;;;;12.64;59.34;102324.59;5011436;28;20041;-51
2023/04/05 03:45:11;;;;;;;4.28;2.10;;;;;;;12.64;60.04;102321.03;5004954;28;20061;-52
2023/04/05 03:47:36;;;;;;;3.53;2.50;;;;;;;12.64;60.33;102321.03;5008362;28;20087;-52
2023/04/05 03:50:02;;;;;;;2.53;2.22;;;;;;;12.65;59.83;102320.09;5005395;28;20073;-51
2023/04/05 03:52:28;;;;;;;2.63;2.35;;;;;;;12.63;59.57;102319.31;5005633;28;20042;-51
2023/04/05 03:54:53;;;;;;;3.80;2.22;;;;;;;12.62;59.77;102315.78;5004664;28;20467;-52
2023/04/05 03:57:19;;;;;;;3.05;2.60;;;;;;;12.62;59.79;102314.91;5008087;28;20058;-50
2023/04/05 03:59:45;;;;;;;2.60;2.10;;;;;;;12.62;59.73;102317.56;5005035;28;20037;-50
2023/04/05 04:02:10;;;;;;;2.72;2.30;;;;;;;12.61;59.59;102310.50;5007735;28;20033;-51
2023/04/05 04:04:36;;;;;;;3.22;2.33;;;;;;;12.61;59.43;102314.03;5004562;28;20383;-51
2023/04/05 04:07:01;;;;;;;2.55;2.28;;;;;;;12.61;59.54;102321.19;5005236;28;20383;-51
2023/04/05 04:09:28;;;;;;;3.58;2.40;;;;;;;12.60;59.68;102306.09;5004340;28;20030;-52
2023/04/05 04:11:55;;;;;;;2.72;2.40;;;;;;;12.60;59.37;102303.41;5004631;28;20383;-50
2023/04/05 04:14:21;;;;;;;3.67;2.60;;;;;;;12.58;59.62;102308.84;5004344;28;20055;-51
2023/04/05 04:16:46;;;;;;;3.58;2.72;;;;;;;12.59;59.41;102307.06;5004402;28;20041;-51
2023/04/05 04:19:12;;;;;;;3.35;2.28;;;;;;;12.59;59.57;102307.06;5004542;28;20033;-52
2023/04/05 04:21:38;;;;;;;5.80;2.60;;;;;;;12.58;59.51;102307.97;5004223;28;20471;-52
2023/04/05 04:24:04;;;;;;;3.63;2.40;;;;;;;12.57;59.64;102303.59;5004436;28;20521;-50
2023/04/05 04:26:36;;;;;;;2.20;2.00;;;;;;;12.57;59.51;102295.56;5004600;28;20037;-51
2023/04/05 04:29:02;;;;;;;;;;;;;;;12.70;59.70;102305.56;5004973;28;20139;-49
2023/04/05 04:31:27;;;;;;;3.08;1.80;;;;;;;12.58;59.43;102300.81;5004247;28;19918;-50
2023/04/05 04:33:54;;;;;;;2.58;2.22;;;;;;;12.57;59.22;102300.91;5003667;28;20038;-52
2023/04/05 04:36:25;;;;;;;2.90;2.42;;;;;;;12.55;59.46;102308.16;4999551;28;20046;-50
2023/04/05 04:38:52;;;;;;;2.67;2.42;;;;;;;12.54;59.32;102301.91;5004026;28;20368;-50
2023/04/05 04:41:18;;;;;;;3.30;2.15;;;;;;;12.55;59.52;102305.47;5001843;28;20523;-50
2023/04/05 04:43:44;;;;;;;2.65;2.40;;;;;;;12.54;59.51;102307.25;5003692;28;20029;-51
2023/04/05 04:46:13;;;;;;;2.60;2.40;;;;;;;12.52;59.23;102301.13;5003777;28;20042;-52
2023/04/05 04:48:42;;;;;;;2.90;2.13;;;;;;;12.52;58.97;102301.13;5003932;28;20089;-52
2023/04/05 04:51:07;;;;;;;2.70;2.13;;;;;;;12.52;58.88;102299.31;5003344;28;20558;-47
2023/04/05 04:53:32;;;;;;;2.65;2.38;;;;;;;12.51;59.29;102304.75;5002939;28;20026;-52
2023/04/05 04:55:58;;;;;;;2.10;1.90;;;;;;;12.50;58.84;102300.34;5003681;28;20038;-52
2023/04/05 04:58:23;;;;;;;3.55;2.05;;;;;;;12.49;58.87;102304.81;5003585;28;20036;-50
2023/04/05 05:00:51;;;;;;;2.60;2.15;;;;;;;12.48;58.83;102305.75;5003511;28;20034;-52
2023/04/05 05:03:17;;;;;;;2.97;2.67;;;;;;;12.48;59.04;102302.22;5003729;28;20034;-51
2023/04/05 05:05:47;;;;;;;3.25;2.13;;;;;;;12.47;58.80;102301.38;5006046;28;20045;-51
2023/04/05 05:08:13;;;;;;;3.67;2.63;;;;;;;12.48;58.88;102300.41;5005414;28;20058;-51
2023/04/05 05:10:39;;;;;;;2.95;1.85;;;;;;;12.45;59.37;102303.25;5007407;28;20073;-50
2023/04/05 05:13:04;;;;;;;3.13;2.33;;;;;;;12.49;58.86;102302.16;5007103;28;20425;-51
2023/04/05 05:15:30;;;;;;;4.35;2.75;;;;;;;12.46;59.38;102307.63;5002063;28;20033;-52
2023/04/05 05:17:57;;;;;;;3.80;2.38;;;;;;;12.46;59.22;102301.44;5008962;28;20041;-52
2023/04/05 05:20:27;;;;;;;3.28;2.75;;;;;;;12.45;59.46;102305.91;5010335;28;20022;-50
2023/04/05 05:22:53;;;;;;;2.78;2.38;;;;;;;12.45;59.15;102300.56;5009827;28;20037;-48
2023/04/05 05:25:19;;;;;;;4.88;2.80;;;;;;;12.44;59.31;102296.16;5010209;28;20533;-51
2023/04/05 05:27:47;;;;;;;4.85;2.70;;;;;;;12.44;59.23;102292.63;5007010;28;20034;-51
2023/04/05 05:30:13;;;;;;;3.15;2.30;;;;;;;12.44;58.75;102295.31;5012631;28;20103;-52
2023/04/05 05:32:40;;;;;;;2.25;2.05;;;;;;;12.43;58.69;102291.78;5010823;28;20124;-51
2023/04/05 05:35:06;;;;;;;3.13;2.78;;;;;;;12.43;59.14;102291.78;5001830;28;20038;-48
2023/04/05 05:37:32;;;;;;;8.77;2.97;;;;;;;12.42;58.63;102290.03;5000894;28;20467;-52
2023/04/05 05:39:59;;;;;;;3.92;2.67;;;;;;;12.43;58.70;102290.88;5005241;28;20021;-52
2023/04/05 05:42:25;;;;;;;2.80;2.53;;;;;;;12.41;58.44;102280.25;5002868;28;20038;-52
2023/04/05 05:44:51;;;;;;;3.70;2.58;;;;;;;12.42;58.50;102291.84;5000767;28;20157;-52
2023/04/05 05:47:16;;;;;;;4.22;2.40;;;;;;;12.42;59.00;102290.03;5004108;28;20037;-52
2023/04/05 05:49:42;;;;;;;3.47;2.97;;;;;;;12.41;58.78;102282.06;5001762;28;20044;-52
2023/04/05 05:52:07;;;;;;;3.90;3.03;;;;;;;12.41;58.65;102288.28;4999939;28;20051;-50
2023/04/05 05:54:32;;;;;;;2.60;2.40;;;;;;;12.41;58.36;102295.44;5003604;28;20037;-51
2023/04/05 05:56:58;;;;;;;3.15;2.60;;;;;;;12.40;58.72;102299.91;4999749;28;20030;-53
2023/04/05 05:59:23;;;;;;;4.47;2.55;;;;;;;12.40;58.49;102304.41;5003094;28;20041;-51
2023/04/05 06:01:50;;;;;;;4.55;3.00;;;;;;;12.39;58.50;102306.19;5002253;28;20255;-51
2023/04/05 06:04:16;;;;;;;2.65;2.38;;;;;;;12.38;58.72;102296.47;5003293;28;20056;-52
2023/04/05 06:06:42;;;;;;;3.08;2.50;;;;;;;12.38;58.60;102296.47;5003222;28;20476;-51
2023/04/05 06:09:09;;;;;;;3.65;2.50;;;;;;;12.38;58.71;102298.28;5003107;28;20034;-51
2023/04/05 06:11:35;;;;;;;3.15;2.72;;;;;;;12.38;58.89;102295.59;5003529;28;20042;-50
2023/04/05 06:14:00;;;;;;;3.95;2.90;;;;;;;12.37;58.45;102302.72;5003079;28;20092;-52
2023/04/05 06:16:26;;;;;;;4.00;2.80;;;;;;;12.38;58.34;102303.63;5009583;28;20026;-52
2023/04/05 06:18:51;;;;;;;5.35;2.40;;;;;;;12.37;58.69;102305.41;5002006;28;20041;-52
2023/04/05 06:21:16;;;;;;;5.53;2.70;;;;;;;12.36;58.89;102301.00;5001096;28;20022;-52
2023/04/05 06:23:42;;;;;;;2.97;2.67;;;;;;;12.37;58.48;102310.75;5003183;28;20045;-52
2023/04/05 06:26:08;;;;;;;4.13;2.47;;;;;;;12.36;58.69;102309.03;5003538;28;20035;-51
2023/04/05 06:28:33;;;;;;;3.72;2.50;;;;;;;12.36;58.41;102302.81;5003749;28;20108;-52
2023/04/05 06:30:59;;;;;;;4.15;3.35;;;;;;;12.37;58.61;102305.41;5002970;28;20387;-52
2023/04/05 06:33:25;;;;;;;2.70;2.40;;;;;;;12.36;58.29;102306.34;5003118;28;20026;-50
2023/04/05 06:35:51;;;;;;;2.97;2.53;;;;;;;12.34;58.50;102302.91;5003180;28;20495;-52
2023/04/05 06:38:16;;;;;;;3.28;2.72;;;;;;;12.35;58.21;102299.28;5003274;28;20159;-51
2023/04/05 06:40:42;;;;;;;2.70;2.40;;;;;;;12.33;58.13;102299.34;5002995;28;20027;-50
2023/04/05 06:43:09;;;;;;;3.40;2.70;;;;;;;12.34;58.24;102302.91;5003393;28;20025;-51
2023/04/05 06:45:35;;;;;;;2.40;2.10;;;;;;;12.35;58.46;102304.63;5004226;28;20030;-51
2023/04/05 06:48:00;;;;;;;4.47;2.97;;;;;;;12.33;58.77;102302.00;5002761;28;20125;-51
2023/04/05 06:50:26;;;;;;;2.78;2.40;;;;;;;12.33;58.36;102302.00;5002641;28;20034;-52
2023/04/05 06:52:51;;;;;;;2.38;2.10;;;;;;;12.34;58.67;102302.91;5002870;28;20049;-49
2023/04/05 06:55:17;;;;;;;2.70;2.28;;;;;;;12.33;58.72;102307.34;5002925;28;20072;-52
2023/04/05 06:57:42;;;;;;;3.42;2.78;;;;;;;12.33;58.30;102301.16;5003386;28;20041;-52
2023/04/05 07:00:10;;;;;;;2.22;2.00;;;;;;;12.33;58.30;102311.84;5006999;28;20026;-50
2023/04/05 07:02:35;;;;;;;3.47;2.40;;;;;;;12.32;58.48;102310.13;5006645;28;20034;-51
2023/04/05 07:05:04;;;;;;;3.38;2.58;;;;;;;12.32;58.26;102305.63;5004119;28;20129;-53
2023/04/05 07:07:33;;;;;;;2.50;2.10;;;;;;;12.32;58.63;102310.13;5006176;28;20042;-51
2023/04/05 07:09:58;;;;;;;2.60;2.40;;;;;;;12.32;58.49;102316.31;5005996;28;20062;-50
2023/04/05 07:12:24;;;;;;;2.63;2.30;;;;;;;12.31;58.38;102314.56;5006259;28;20038;-51
2023/04/05 07:14:49;;;;;;;2.63;2.03;;;;;;;12.32;58.93;102320.81;5006218;28;20537;-51
2023/04/05 07:17:15;;;;;;;2.92;2.40;;;;;;;12.32;58.50;102310.13;5005966;28;20395;-50
2023/04/05 07:19:40;;;;;;;3.08;2.55;;;;;;;12.32;58.80;102310.13;5006302;28;20038;-50
2023/04/05 07:22:06;;;;;;;2.50;2.30;;;;;;;12.31;58.41;102314.56;5006465;28;20037;-52
2023/04/05 07:24:31;;;;;;;2.60;2.40;;;;;;;12.30;58.51;102315.53;5005812;28;20045;-52
2023/04/05 07:26:57;;;;;;;2.40;2.20;;;;;;;12.31;58.71;102309.22;5005526;28;20387;-51
2023/04/05 07:29:22;;;;;;;2.90;2.17;;;;;;;12.32;59.02;102323.47;5005584;28;20065;-52
2023/04/05 07:31:48;;;;;;;2.85;2.45;;;;;;;12.30;58.45;102312.84;5008839;28;20033;-51
2023/04/05 07:34:13;;;;;;;2.55;2.15;;;;;;;12.30;58.81;102306.66;5005369;28;20411;-52
2023/04/05 07:36:38;;;;;;;3.67;2.13;;;;;;;12.32;58.46;102315.47;5006150;28;20038;-53
2023/04/05 07:39:04;;;;;;;2.72;2.28;;;;;;;12.30;58.75;102310.19;5005603;28;20030;-52
2023/04/05 07:41:34;;;;;;;2.75;2.28;;;;;;;12.30;58.74;102306.66;5004285;28;20025;-51
2023/04/05 07:44:00;;;;;;;2.53;2.13;;;;;;;12.30;58.51;102306.66;5004287;28;20427;-52
2023/04/05 07:46:26;;;;;;;2.78;2.17;;;;;;;12.28;58.53;102309.41;5005630;28;20029;-53
2023/04/05 07:48:52;;;;;;;4.40;2.38;;;;;;;12.28;58.59;102305.84;5005793;28;20061;-51
2023/04/05 07:51:17;;;;;;;2.25;1.92;;;;;;;12.29;58.76;102307.59;5005072;28;20465;-52
2023/04/05 07:53:42;;;;;;;3.70;2.25;;;;;;;12.28;58.34;102303.16;5011412;28;20053;-52
2023/04/05 07:56:10;;;;;;;2.38;2.17;;;;;;;12.28;58.51;102311.19;5005627;28;20065;-52
2023/04/05 07:58:39;;;;;;;2.47;2.17;;;;;;;12.28;58.38;102303.16;5005483;28;20044;-53
2023/04/05 08:01:04;;;;;;;2.33;2.13;;;;;;;12.28;58.61;102304.06;5005255;28;20057;-51
2023/04/05 08:03:31;;;;;;;2.20;2.00;;;;;;;12.27;58.53;102307.66;5005411;28;20510;-52
2023/04/05 08:05:56;;;;;;;3.00;2.70;;;;;;;12.28;58.98;102297.81;5001451;28;20038;-50
2023/04/05 08:08:23;;;;;;;2.10;1.90;;;;;;;12.28;58.60;102305.84;5005331;28;20104;-51
2023/04/05 08:10:49;;;;;;;2.13;1.92;;;;;;;12.27;58.62;102296.97;5007875;28;20030;-52
2023/04/05 08:13:14;;;;;;;2.78;2.00;;;;;;;12.27;58.97;102296.97;5005033;28;20036;-51
2023/04/05 08:15:40;;;;;;;2.17;1.98;;;;;;;12.26;58.31;102299.72;5008544;28;20052;-49
2023/04/05 08:18:06;;;;;;;2.38;2.05;;;;;;;12.27;58.48;102302.31;5005190;28;20113;-52
2023/04/05 08:20:31;;;;;;;2.40;2.20;;;;;;;12.27;58.60;102306.78;5004853;28;20083;-49
2023/04/05 08:22:57;;;;;;;3.33;2.60;;;;;;;12.27;58.71;102302.31;5011771;28;20026;-52
2023/04/05 08:25:22;;;;;;;3.20;2.03;;;;;;;12.28;58.89;102311.19;5004721;28;20491;-50
2023/04/05 08:27:47;;;;;;;1.95;1.80;;;;;;;12.27;58.68;102307.66;5004732;28;20052;-52
2023/04/05 08:30:13;;;;;;;2.47;2.22;;;;;;;12.28;58.51;102306.72;5011599;28;20034;-52
2023/04/05 08:32:38;;;;;;;2.33;1.90;;;;;;;12.27;58.77;102304.13;5005110;28;20049;-52
2023/04/05 08:35:04;;;;;;;2.13;1.80;;;;;;;12.27;58.73;102298.78;5004613;28;20034;-52
2023/04/05 08:37:34;;;;;;;2.38;2.13;;;;;;;12.27;59.05;102301.44;5004645;28;20043;-52
2023/04/05 08:39:59;;;;;;;2.78;2.00;;;;;;;12.26;58.47;102305.94;5005035;28;20550;-51
2023/04/05 08:42:32;;;;;;;2.20;2.00;;;;;;;12.27;58.58;102302.31;5004815;28;20069;-52
2023/04/05 08:44:58;;;;;;;2.58;2.20;;;;;;;12.26;58.56;102300.59;5004724;28;20034;-52
2023/04/05 08:47:24;;;;;;;2.35;1.90;;;;;;;12.27;58.90;102298.78;5004563;28;20030;-51
2023/04/05 08:49:50;;;;;;;1.95;1.75;;;;;;;12.26;58.51;102294.38;5004626;28;20546;-52
2023/04/05 08:52:16;;;;;;;1.95;1.83;;;;;;;12.27;58.27;102296.09;5004114;28;20554;-51
2023/04/05 08:54:41;;;;;;;2.30;2.00;;;;;;;12.25;58.85;102303.31;5004600;28;20121;-50
2023/04/05 08:57:07;;;;;;;2.30;1.92;;;;;;;12.26;59.03;102299.72;5001087;28;20026;-51
2023/04/05 08:59:38;;;;;;;1.70;1.58;;;;;;;12.25;59.07;102296.19;5006616;28;20486;-52
2023/04/05 09:02:11;;;;;;;2.55;1.88;;;;;;;12.25;59.09;102306.00;5004360;28;20084;-52
2023/04/05 09:04:43;;;;;;;2.90;1.77;;;;;;;12.25;58.88;102298.00;5004090;28;20029;-52
2023/04/05 09:07:10;;;;;;;2.10;1.90;;;;;;;12.27;58.76;102298.78;5004037;28;20121;-52
2023/04/05 09:09:37;;;;;;;2.22;1.75;;;;;;;12.26;58.86;102291.69;5003070;28;20093;-50
2023/04/05 09:12:06;;;;;;;1.80;1.70;;;;;;;12.26;58.95;102291.69;5003847;28;20483;-52
2023/04/05 09:14:37;;;;;;;1.60;1.50;;;;;;;12.26;58.84;102289.03;5003970;28;20039;-52
2023/04/05 09:17:03;;;;;;;2.65;1.83;;;;;;;12.27;58.90;102285.44;5004089;28;20034;-52
2023/04/05 09:19:29;;;;;;;2.15;1.70;;;;;;;12.26;59.01;102289.91;5004025;28;20037;-52
2023/04/05 09:22:06;;;;;;;1.73;1.63;;;;;;;12.27;59.10;102290.78;5003541;28;20483;-52
2023/04/05 09:24:43;;;;;;;3.17;1.63;;;;;;;12.28;59.29;102284.47;5003894;28;20083;-52
2023/04/05 09:27:13;;;;;;;2.38;1.67;;;;;;;12.26;59.15;102284.56;5003725;28;20100;-50
2023/04/05 09:29:40;;;;;;;2.17;1.58;;;;;;;12.26;59.10;102278.34;5003794;28;20080;-52
2023/04/05 09:32:07;;;;;;;1.90;1.80;;;;;;;12.26;59.26;102286.34;5003759;28;20464;-52
2023/04/05 09:34:36;;;;;;;1.88;1.63;;;;;;;12.26;59.41;102283.69;5003604;28;20109;-52
2023/04/05 09:37:12;;;;;;;2.55;2.08;;;;;;;12.27;59.28;102280.09;5003614;28;20529;-53
2023/04/05 09:39:37;;;;;;;1.65;1.55;;;;;;;12.27;59.36;102280.09;5000911;28;20053;-51
2023/04/05 09:42:16;;;;;;;1.63;1.52;;;;;;;12.28;59.38;102284.47;5003621;28;20058;-50
2023/04/05 09:44:52;;;;;;;1.70;1.60;;;;;;;12.27;59.65;102277.41;5001390;28;20062;-51
2023/04/05 09:47:20;;;;;;;1.67;1.58;;;;;;;12.26;59.30;102273.88;5003787;28;20394;-52
2023/04/05 09:49:45;;;;;;;2.00;1.63;;;;;;;12.26;59.31;102279.22;5003873;28;20087;-50
2023/04/05 09:52:17;;;;;;;2.35;1.73;;;;;;;12.27;59.33;102274.75;5003237;28;20050;-52
2023/04/05 09:54:43;;;;;;;2.92;2.00;;;;;;;12.26;59.44;102270.31;5003755;28;20384;-52
2023/04/05 09:57:09;;;;;;;2.33;1.70;;;;;;;12.27;59.34;102274.75;5010086;28;20253;-52
2023/04/05 09:59:34;;;;;;;2.10;1.65;;;;;;;12.26;59.47;102276.56;5003438;28;20061;-50
2023/04/05 10:02:01;;;;;;;1.92;1.60;;;;;;;12.26;59.75;102273.00;5003785;28;20084;-51
2023/04/05 10:04:37;;;;;;;2.35;1.75;;;;;;;12.27;59.61;102266.72;5003643;28;20037;-50
2023/04/05 10:07:03;;;;;;;2.25;1.50;;;;;;;12.26;59.33;102260.53;5003286;28;20069;-49
2023/04/05 10:09:28;;;;;;;1.58;1.33;;;;;;;12.27;59.54;102259.56;5003083;28;20061;-51
2023/04/05 10:11:55;;;;;;;1.73;1.63;;;;;;;12.28;59.54;102260.44;5003165;28;20183;-51
2023/04/05 10:14:21;;;;;;;1.60;1.50;;;;;;;12.27;59.58;102253.38;5018351;28;20041;-50
2023/04/05 10:16:56;;;;;;;1.60;1.50;;;;;;;12.26;59.58;102248.97;5003583;28;20053;-50
2023/04/05 10:19:28;;;;;;;2.00;1.80;;;;;;;12.28;59.85;102244.41;5003284;28;20383;-51
2023/04/05 10:21:53;;;;;;;;;;;;;;;12.41;59.68;102256.22;5003512;28;20357;-49
2023/04/05 10:24:49;;;;;;;1.50;1.40;;;;;;;12.34;60.02;102249.47;5003261;28;19933;-50
2023/04/05 10:27:21;;;;;;;2.65;1.60;;;;;;;12.30;59.62;102239.88;5003789;28;20060;-51
2023/04/05 10:30:01;;;;;;;1.70;1.60;;;;;;;12.30;59.72;102242.56;5003969;28;20037;-48
2023/04/05 10:32:44;;;;;;;1.67;1.58;;;;;;;12.30;60.19;102231.88;5002983;28;20042;-52
2023/04/05 10:35:23;;;;;;;2.00;1.30;;;;;;;12.30;59.84;102239.88;5001171;28;20384;-51
2023/04/05 10:38:00;;;;;;;2.55;1.60;;;;;;;12.28;60.01;102236.41;5006024;28;20049;-50
2023/04/05 10:40:30;;;;;;;1.30;1.20;;;;;;;12.28;59.64;102239.06;5006701;28;20383;-49
2023/04/05 10:42:56;;;;;;;1.77;1.55;;;;;;;12.28;59.66;102239.06;5009518;28;20089;-49
2023/04/05 10:45:24;;;;;;;2.53;1.60;;;;;;;12.29;59.86;102235.47;5006973;28;20038;-50
2023/04/05 10:47:58;;;;;;;1.95;1.77;;;;;;;12.28;60.14;102229.28;5006572;28;20379;-52
2023/04/05 10:50:24;;;;;;;1.70;1.33;;;;;;;12.27;59.79;102234.69;5006542;28;20037;-51
2023/04/05 10:52:51;;;;;;;1.90;1.75;;;;;;;12.28;60.15;102233.72;5006287;28;20096;-50
2023/04/05 10:55:17;;;;;;;2.95;1.55;;;;;;;12.28;60.21;102226.59;5007164;28;20030;-51
2023/04/05 10:57:45;;;;;;;2.05;1.85;;;;;;;12.28;59.92;102223.03;5006410;28;20134;-50
2023/04/05 11:00:12;;;;;;;1.60;1.50;;;;;;;12.28;59.89;102223.94;5006752;28;20033;-51
2023/04/05 11:02:38;;;;;;;1.80;1.58;;;;;;;12.28;60.10;102223.03;5006227;28;20491;-50
2023/04/05 11:05:04;;;;;;;1.38;1.27;;;;;;;12.28;60.37;102223.03;5006298;28;20034;-51
2023/04/05 11:07:43;;;;;;;1.70;1.50;;;;;;;12.29;60.22;102219.44;5006198;28;20037;-51
2023/04/05 11:10:16;;;;;;;2.08;1.70;;;;;;;12.28;60.54;102218.59;5006144;28;20030;-51
2023/04/05 11:12:44;;;;;;;1.40;1.30;;;;;;;12.28;60.15;102213.25;5003764;28;20085;-50
2023/04/05 11:15:33;;;;;;;1.50;1.40;;;;;;;12.31;60.24;102217.56;5007795;28;20493;-51
2023/04/05 11:18:03;;;;;;;1.85;1.50;;;;;;;12.28;60.27;102217.72;4998725;28;20050;-49
2023/04/05 11:20:52;;;;;;;2.08;1.50;;;;;;;12.32;60.22;102213.97;5009860;28;20026;-50
2023/04/05 11:23:23;;;;;;;2.65;1.52;;;;;;;12.28;60.21;102209.69;5006302;28;20062;-51
2023/04/05 11:25:50;;;;;;;1.80;1.70;;;;;;;12.31;60.41;102217.56;5006384;28;20030;-51
2023/04/05 11:28:39;;;;;;;2.22;1.70;;;;;;;12.31;60.34;102205.06;5006260;28;20038;-51